Payneville, Kentucky
Current Conditions -  °F | °C
As of 11:58 AM on Tuesday 27 Jan 2015 (Local Time) from KFTK Reporting Station
Overcast Overcast  
Wind Chill: 26°   Ceiling: 1100
Heat Index: 31°   Visibility: 10mi
Dew Point: 26°   Wind: 5mph
Humidity: 83%   Direction: 30°NNE
Pressure: 30.06"   Gusts: NA
Location:  37.99°N, 86.31°W
Report Text: KFTK 271658Z 03004KT 10SM OVC011 M01/M03 A3006 RMK AO2A SLP190 T10071032
Loading
Personal Weather Stations






























Interactive Weather Map New forecast layout! Learn more

10-Day Weather Forecast

Advertisements
Track Severe Weather on mobile